RKJK/KUV METAR and TAF weather

Enter ICAO airport designator
Station Type Date Time Source
RKJK METAR 2019/07/20 04:56 UTC NOAA

RKJK 200456Z AUTO 08008G20KT 10SM -RA FEW034 FEW047 SCT080 SCT180 SCT200 28/27 A2936 RMK AO2 RAE24DZB28E50RAB50 SLP946 P0001 T02810274 $


Station Type Date Time Source
RKJK Decoded METAR 2019/07/20 04:56 UTC NOAA

Kunsan Ab, Korea, South (RKJK) 35-55N 126-37E 10M
Jul 20, 2019 - 12:56 AM EDT / 2019.07.20 0456 UTC
Wind: from the E (080 degrees) at 9 MPH (8 KT) gusting to 23 MPH (20 KT):0
Visibility: 10 mile(s):0
Sky conditions: partly cloudy
Weather: light rain
Precipitation last hour: 0.01 inches
Temperature: 82.6 F (28.1 C)
Dew Point: 81.3 F (27.4 C)
Relative Humidity: 95%
Pressure (altimeter): 29.36 in. Hg (994 hPa)
ob: RKJK 200456Z AUTO 08008G20KT 10SM -RA FEW034 FEW047 SCT080 SCT180 SCT200 28/27 A2936 RMK AO2 RAE24DZB28E50RAB50 SLP946 P0001 T02810274
cycle: 5

Station Type Date Time Source
RKJK TAF 2019/07/20 04:21 UTC NOAA

TAF TAF
AMD RKJK 200410Z 2004/2105 08012G18KT 8000 -SHRA BKN050 OVC060 QNH2928INS
TEMPO 2004/2007 09025G35KT BKN005 540209
BECMG 2011/2012 23012G18KT 8000 -SHRA OVC005 QNH2936INS TX29/2100Z TN23/2012Z

Example: see airport list